createdAt,value
2023-02-16T00:01:48.046Z,7.43
2023-02-16T00:04:22.969Z,7.41
2023-02-16T00:06:49.897Z,7.45
2023-02-16T00:09:17.238Z,7.23
2023-02-16T00:12:02.577Z,7.35
2023-02-16T00:14:29.798Z,7.38
2023-02-16T00:16:57.482Z,7.31
2023-02-16T00:19:27.589Z,7.25
2023-02-16T00:21:56.128Z,7.17
2023-02-16T00:24:23.582Z,7.28
2023-02-16T00:26:50.677Z,7.30
2023-02-16T00:29:23.376Z,7.29
2023-02-16T00:31:50.543Z,7.24
2023-02-16T00:34:31.249Z,7.28
2023-02-16T00:36:58.873Z,7.24
2023-02-16T00:39:26.229Z,7.29
2023-02-16T00:41:58.011Z,7.19
2023-02-16T00:44:34.138Z,7.09
2023-02-16T00:47:25.807Z,7.04
2023-02-16T00:49:53.718Z,7.11
2023-02-16T00:52:23.660Z,7.20
2023-02-16T00:54:50.718Z,7.13
2023-02-16T00:57:17.959Z,7.06
2023-02-16T00:59:45.466Z,7.03
2023-02-16T01:02:12.187Z,7.06
2023-02-16T01:04:39.524Z,7.04
2023-02-16T01:07:30.526Z,6.86
2023-02-16T01:10:15.990Z,6.88
2023-02-16T01:12:42.799Z,6.70
2023-02-16T01:15:12.725Z,6.81
2023-02-16T01:17:39.469Z,6.84
2023-02-16T01:20:19.356Z,6.74
2023-02-16T01:22:46.147Z,6.85
2023-02-16T01:25:14.292Z,6.65
2023-02-16T01:27:41.200Z,6.71
2023-02-16T01:30:21.683Z,6.64
2023-02-16T01:32:51.892Z,6.69
2023-02-16T01:35:23.637Z,6.67
2023-02-16T01:37:50.452Z,6.67
2023-02-16T01:40:35.278Z,6.65
2023-02-16T01:43:21.892Z,6.65
2023-02-16T01:45:54.645Z,6.59
2023-02-16T01:48:25.129Z,6.71
2023-02-16T01:50:57.704Z,6.73
2023-02-16T01:53:48.937Z,6.73
2023-02-16T01:56:25.419Z,6.53
2023-02-16T01:58:54.662Z,6.67
2023-02-16T02:01:42.017Z,6.63
2023-02-16T02:04:48.818Z,6.59
2023-02-16T02:07:38.634Z,6.60
2023-02-16T02:10:20.220Z,6.56
2023-02-16T02:13:12.331Z,6.55
2023-02-16T02:15:39.085Z,6.60
2023-02-16T02:18:06.213Z,6.62
2023-02-16T02:21:24.058Z,6.53
2023-02-16T02:24:04.864Z,6.50
2023-02-16T02:26:55.897Z,6.44
2023-02-16T02:29:46.741Z,6.45
2023-02-16T02:32:31.862Z,6.42
2023-02-16T02:35:17.528Z,6.28
2023-02-16T02:37:47.226Z,6.44
2023-02-16T02:40:40.931Z,6.41
2023-02-16T02:43:13.935Z,6.48
2023-02-16T02:45:54.448Z,6.52
2023-02-16T02:48:21.224Z,6.42
2023-02-16T02:51:08.797Z,6.39
2023-02-16T02:53:38.192Z,6.47
2023-02-16T02:56:23.887Z,6.34
2023-02-16T02:59:11.174Z,6.36
2023-02-16T03:01:38.481Z,6.44
2023-02-16T03:04:05.563Z,6.34
2023-02-16T03:06:40.875Z,6.43
2023-02-16T03:09:11.524Z,6.43
2023-02-16T03:11:57.068Z,6.34
2023-02-16T03:14:30.901Z,6.34
2023-02-16T03:17:18.330Z,6.27
2023-02-16T03:20:05.384Z,6.26
2023-02-16T03:22:51.055Z,6.24
2023-02-16T03:25:36.449Z,6.29
2023-02-16T03:28:22.779Z,6.20
2023-02-16T03:30:49.681Z,6.25
2023-02-16T03:33:16.785Z,6.09
2023-02-16T03:35:43.697Z,6.12
2023-02-16T03:38:10.738Z,6.28
2023-02-16T03:40:39.570Z,6.31
2023-02-16T03:43:08.114Z,6.16
2023-02-16T03:45:37.117Z,6.15
2023-02-16T03:48:04.260Z,6.08
2023-02-16T03:50:31.273Z,6.18
2023-02-16T03:53:07.598Z,6.11
2023-02-16T03:55:42.343Z,6.20
2023-02-16T03:58:10.963Z,6.28
2023-02-16T04:00:37.805Z,6.26
2023-02-16T04:03:05.693Z,6.27
2023-02-16T04:05:32.624Z,6.24
2023-02-16T04:07:59.687Z,6.18
2023-02-16T04:10:26.549Z,6.07
2023-02-16T04:12:53.701Z,5.98
2023-02-16T04:15:22.267Z,6.08
2023-02-16T04:17:49.596Z,6.03
2023-02-16T04:20:18.831Z,6.01
2023-02-16T04:22:46.038Z,6.04
2023-02-16T04:25:12.883Z,6.06
2023-02-16T04:27:40.024Z,5.92
2023-02-16T04:30:07.491Z,5.97
2023-02-16T04:32:34.569Z,6.06
2023-02-16T04:35:01.326Z,5.95
2023-02-16T04:37:28.373Z,5.94
2023-02-16T04:39:55.230Z,5.96
2023-02-16T04:42:22.352Z,5.89
2023-02-16T04:44:49.090Z,5.97
2023-02-16T04:47:16.173Z,5.83
2023-02-16T04:49:42.989Z,5.97
2023-02-16T04:52:11.961Z,5.89
2023-02-16T04:54:38.788Z,5.90
2023-02-16T04:57:05.830Z,5.94
2023-02-16T04:59:32.619Z,5.94
2023-02-16T05:01:59.781Z,5.92
2023-02-16T05:04:26.683Z,5.95
2023-02-16T05:06:53.830Z,5.98
2023-02-16T05:09:20.773Z,5.90
2023-02-16T05:12:06.529Z,5.93
2023-02-16T05:14:46.993Z,5.91
2023-02-16T05:17:16.575Z,5.91
2023-02-16T05:19:44.618Z,5.90
2023-02-16T05:22:11.895Z,5.89
2023-02-16T05:24:39.152Z,5.85
2023-02-16T05:27:07.722Z,5.85
2023-02-16T05:29:34.707Z,5.86
2023-02-16T05:32:04.377Z,5.89
2023-02-16T05:34:31.586Z,5.87
2023-02-16T05:36:58.631Z,5.80
2023-02-16T05:39:25.899Z,5.85
2023-02-16T05:41:52.974Z,5.87
2023-02-16T05:44:19.769Z,5.82
2023-02-16T05:46:46.868Z,5.84
2023-02-16T05:49:14.408Z,5.87
2023-02-16T05:51:41.738Z,5.69
2023-02-16T05:54:10.680Z,5.78
2023-02-16T05:56:37.785Z,5.80
2023-02-16T05:59:04.521Z,5.80
2023-02-16T06:01:31.578Z,5.81
2023-02-16T06:03:58.397Z,5.84
2023-02-16T06:06:25.470Z,5.78
2023-02-16T06:08:52.514Z,5.73
2023-02-16T06:11:37.881Z,5.78
2023-02-16T06:14:12.735Z,5.74
2023-02-16T06:16:41.051Z,5.57
2023-02-16T06:19:07.849Z,5.62
2023-02-16T06:21:35.390Z,5.65
2023-02-16T06:24:02.233Z,5.68
2023-02-16T06:26:29.343Z,5.49
2023-02-16T06:28:56.165Z,5.49
2023-02-16T06:31:23.820Z,5.61
2023-02-16T06:33:51.015Z,5.50
2023-02-16T06:36:18.250Z,5.60
2023-02-16T06:38:45.515Z,5.62
2023-02-16T06:41:12.723Z,5.69
2023-02-16T06:43:39.529Z,5.78
2023-02-16T06:46:06.740Z,5.78
2023-02-16T06:48:33.649Z,5.79
2023-02-16T06:51:00.710Z,5.71
2023-02-16T06:53:27.531Z,5.75
2023-02-16T06:55:54.666Z,5.76
2023-02-16T06:58:21.536Z,5.81
2023-02-16T07:00:48.684Z,5.79
2023-02-16T07:03:15.561Z,5.79
2023-02-16T07:05:44.180Z,5.76
2023-02-16T07:08:11.135Z,5.82
2023-02-16T07:10:49.288Z,5.83
2023-02-16T07:13:17.040Z,5.83
2023-02-16T07:15:44.140Z,5.81
2023-02-16T07:18:10.875Z,5.84
2023-02-16T07:20:38.039Z,5.80
2023-02-16T07:23:04.952Z,5.95
2023-02-16T07:25:32.094Z,5.88
2023-02-16T07:27:58.909Z,5.91
2023-02-16T07:30:25.990Z,5.94
2023-02-16T07:32:52.792Z,5.94
2023-02-16T07:35:20.151Z,6.01
2023-02-16T07:37:46.991Z,6.01
2023-02-16T07:40:14.022Z,6.06
2023-02-16T07:42:40.799Z,6.06
2023-02-16T07:45:08.294Z,6.06
2023-02-16T07:47:35.092Z,6.09
2023-02-16T07:50:02.207Z,6.14
2023-02-16T07:52:31.238Z,6.18
2023-02-16T07:55:01.182Z,6.19
2023-02-16T07:57:28.200Z,6.21
2023-02-16T07:59:55.650Z,6.23
2023-02-16T08:02:22.742Z,6.24
2023-02-16T08:04:50.017Z,6.29
2023-02-16T08:07:17.376Z,6.36
2023-02-16T08:09:44.622Z,6.41
2023-02-16T08:12:12.465Z,6.42
2023-02-16T08:14:39.901Z,6.49
2023-02-16T08:17:07.676Z,6.47
2023-02-16T08:19:34.987Z,6.52
2023-02-16T08:22:02.552Z,6.58
2023-02-16T08:24:29.669Z,6.60
2023-02-16T08:26:56.704Z,6.67
2023-02-16T08:29:23.796Z,6.73
2023-02-16T08:31:50.728Z,6.77
2023-02-16T08:34:18.791Z,6.76
2023-02-16T08:36:53.251Z,6.82
2023-02-16T08:39:21.037Z,6.85
2023-02-16T08:41:48.497Z,6.91
2023-02-16T08:44:16.081Z,6.93
2023-02-16T08:46:43.844Z,7.00
2023-02-16T08:49:11.936Z,7.01
2023-02-16T08:51:42.696Z,7.05
2023-02-16T08:54:13.595Z,7.10
2023-02-16T08:56:41.623Z,7.10
2023-02-16T08:59:08.768Z,7.09
2023-02-16T09:01:35.987Z,7.15
2023-02-16T09:04:03.131Z,7.17
2023-02-16T09:06:29.866Z,7.23
2023-02-16T09:08:57.276Z,7.23
2023-02-16T09:11:24.532Z,7.31
2023-02-16T09:13:51.746Z,7.36
2023-02-16T09:16:20.613Z,7.41
2023-02-16T09:18:48.171Z,7.48
2023-02-16T09:21:20.988Z,7.53
2023-02-16T09:23:49.344Z,7.54
2023-02-16T09:26:18.081Z,7.63
2023-02-16T09:28:45.791Z,7.69
2023-02-16T09:31:20.309Z,7.71
2023-02-16T09:33:47.485Z,7.74
2023-02-16T09:36:14.293Z,7.83
2023-02-16T09:38:41.443Z,7.85
2023-02-16T09:41:23.446Z,7.88
2023-02-16T09:43:57.973Z,7.90
2023-02-16T09:46:25.381Z,7.95
2023-02-16T09:48:54.773Z,7.97
2023-02-16T09:51:48.196Z,8.02
2023-02-16T09:54:28.324Z,8.12
2023-02-16T09:56:58.180Z,8.20
2023-02-16T09:59:51.541Z,8.24
2023-02-16T10:02:39.909Z,8.29
2023-02-16T10:05:20.368Z,8.32
2023-02-16T10:07:57.598Z,8.39
2023-02-16T10:10:46.242Z,8.44
2023-02-16T10:13:26.235Z,8.45
2023-02-16T10:15:54.164Z,8.49
2023-02-16T10:18:42.193Z,8.56
2023-02-16T10:21:15.362Z,8.61
2023-02-16T10:23:48.609Z,8.73
2023-02-16T10:26:28.597Z,8.78
2023-02-16T10:28:56.869Z,8.84
2023-02-16T10:31:27.021Z,8.89
2023-02-16T10:34:15.611Z,8.90
2023-02-16T10:37:09.608Z,9.00
2023-02-16T10:39:42.726Z,9.03
2023-02-16T10:42:25.100Z,9.14
2023-02-16T10:45:06.095Z,9.16
2023-02-16T10:47:37.401Z,9.25
2023-02-16T10:50:09.887Z,9.30
2023-02-16T10:52:38.133Z,9.36
2023-02-16T10:55:05.779Z,9.39
2023-02-16T10:57:33.192Z,9.43
2023-02-16T11:00:02.309Z,9.49
2023-02-16T11:02:38.207Z,9.55
2023-02-16T11:05:32.330Z,9.62
2023-02-16T11:08:01.716Z,9.63
2023-02-16T11:10:51.922Z,9.69
2023-02-16T11:13:33.961Z,9.74
2023-02-16T11:16:05.581Z,9.79
2023-02-16T11:18:36.388Z,9.83
2023-02-16T11:21:03.911Z,9.89
2023-02-16T11:23:44.317Z,9.92
2023-02-16T11:26:11.805Z,9.93
2023-02-16T11:28:40.914Z,9.99
2023-02-16T11:31:12.421Z,10.03
2023-02-16T11:33:40.316Z,10.03
2023-02-16T11:36:19.787Z,10.12
2023-02-16T11:39:16.524Z,10.16
2023-02-16T11:41:48.584Z,10.20
2023-02-16T11:44:33.186Z,10.18
2023-02-16T11:47:04.414Z,10.17
2023-02-16T11:49:36.980Z,10.22
2023-02-16T11:52:23.189Z,10.25
2023-02-16T11:54:51.900Z,10.31
2023-02-16T11:57:29.764Z,10.34
2023-02-16T11:59:57.305Z,10.42
2023-02-16T12:02:55.011Z,10.46
2023-02-16T12:05:47.333Z,10.47
2023-02-16T12:08:26.275Z,10.47
2023-02-16T12:11:19.491Z,10.51
2023-02-16T12:13:46.289Z,10.53
2023-02-16T12:16:32.104Z,10.55
2023-02-16T12:19:04.637Z,10.54
2023-02-16T12:21:40.839Z,10.54
2023-02-16T12:24:44.827Z,10.60
2023-02-16T12:27:39.193Z,10.65
2023-02-16T12:30:08.076Z,10.69
2023-02-16T12:32:57.788Z,10.74
2023-02-16T12:35:59.151Z,10.72
2023-02-16T12:38:39.692Z,10.71
2023-02-16T12:41:50.964Z,10.78
2023-02-16T12:44:21.179Z,10.83
2023-02-16T12:46:49.814Z,10.85
2023-02-16T12:49:24.597Z,10.84
2023-02-16T12:51:59.238Z,10.81
2023-02-16T12:54:35.660Z,10.80
2023-02-16T12:57:08.316Z,10.81
2023-02-16T12:59:56.634Z,10.82
2023-02-16T13:02:27.769Z,10.89
2023-02-16T13:05:03.227Z,10.91
2023-02-16T13:07:37.378Z,11.00
2023-02-16T13:10:14.733Z,10.92
2023-02-16T13:12:49.846Z,10.97
2023-02-16T13:15:20.693Z,10.98
2023-02-16T13:17:50.034Z,11.01
2023-02-16T13:20:19.815Z,11.09
2023-02-16T13:23:40.430Z,11.12
2023-02-16T13:26:26.385Z,11.16
2023-02-16T13:28:56.316Z,11.12
2023-02-16T13:31:41.843Z,11.12
2023-02-16T13:34:12.034Z,11.03
2023-02-16T13:37:03.452Z,11.02
2023-02-16T13:40:08.120Z,11.04
2023-02-16T13:42:44.288Z,11.11
2023-02-16T13:45:19.825Z,11.20
2023-02-16T13:47:48.276Z,11.23
2023-02-16T13:50:35.667Z,11.14
2023-02-16T13:53:19.936Z,11.21
2023-02-16T13:55:47.004Z,11.23
2023-02-16T13:58:14.124Z,11.15
2023-02-16T14:00:48.567Z,11.15
2023-02-16T14:03:21.894Z,11.15
2023-02-16T14:05:53.021Z,11.16
2023-02-16T14:08:24.795Z,11.16
2023-02-16T14:10:53.926Z,11.15
2023-02-16T14:13:28.670Z,11.18
2023-02-16T14:15:56.750Z,11.19
2023-02-16T14:18:36.180Z,11.18
2023-02-16T14:21:07.748Z,11.24
2023-02-16T14:23:35.094Z,11.25
2023-02-16T14:26:03.724Z,11.27
2023-02-16T14:28:35.423Z,11.23
2023-02-16T14:31:12.705Z,11.22
2023-02-16T14:33:49.044Z,11.15
2023-02-16T14:36:18.383Z,11.18
2023-02-16T14:38:49.511Z,11.19
2023-02-16T14:41:22.547Z,11.19
2023-02-16T14:43:58.692Z,11.18
2023-02-16T14:46:47.220Z,11.13
2023-02-16T14:49:48.304Z,11.21
2023-02-16T14:52:41.183Z,11.28
2023-02-16T14:55:14.371Z,11.25
2023-02-16T14:57:41.232Z,11.21
2023-02-16T15:00:31.958Z,11.21
2023-02-16T15:02:59.947Z,11.13
2023-02-16T15:05:29.712Z,11.18
2023-02-16T15:08:14.049Z,11.23
2023-02-16T15:10:41.106Z,11.20
2023-02-16T15:13:07.959Z,11.17
2023-02-16T15:15:46.007Z,11.17
2023-02-16T15:18:23.609Z,11.20
2023-02-16T15:20:53.003Z,11.20
2023-02-16T15:23:24.496Z,11.19
2023-02-16T15:25:58.731Z,11.18
2023-02-16T15:28:39.220Z,11.15
2023-02-16T15:31:18.153Z,11.14
2023-02-16T15:33:54.951Z,11.17
2023-02-16T15:36:35.435Z,11.17
2023-02-16T15:39:13.285Z,11.12
2023-02-16T15:41:43.298Z,11.12
2023-02-16T15:44:34.457Z,11.10
2023-02-16T15:47:15.962Z,11.06
2023-02-16T15:49:42.779Z,11.05
2023-02-16T15:52:21.590Z,11.06
2023-02-16T15:54:48.552Z,11.02
2023-02-16T15:57:19.853Z,11.01
2023-02-16T15:59:48.726Z,10.96
2023-02-16T16:02:34.924Z,10.98
2023-02-16T16:05:03.234Z,10.95
2023-02-16T16:07:42.864Z,10.94
2023-02-16T16:10:15.525Z,10.92
2023-02-16T16:12:42.873Z,10.93
2023-02-16T16:15:15.716Z,10.88
2023-02-16T16:17:42.829Z,10.85
2023-02-16T16:20:24.891Z,10.79
2023-02-16T16:22:56.740Z,10.71
2023-02-16T16:25:35.932Z,10.67
2023-02-16T16:28:06.949Z,10.63
2023-02-16T16:30:34.883Z,10.58
2023-02-16T16:33:02.796Z,10.52
2023-02-16T16:35:37.985Z,10.49
2023-02-16T16:38:06.118Z,10.50
2023-02-16T16:40:37.292Z,10.48
2023-02-16T16:43:04.568Z,10.48
2023-02-16T16:45:40.953Z,10.47
2023-02-16T16:48:19.400Z,10.45
2023-02-16T16:50:46.610Z,10.42
2023-02-16T16:53:29.126Z,10.38
2023-02-16T16:55:56.987Z,10.32
2023-02-16T16:58:24.038Z,10.29
2023-02-16T17:00:50.798Z,10.27
2023-02-16T17:03:18.044Z,10.27
2023-02-16T17:05:45.243Z,10.22
2023-02-16T17:08:12.406Z,10.21
2023-02-16T17:10:40.339Z,10.19
2023-02-16T17:13:07.690Z,10.15
2023-02-16T17:15:53.981Z,10.10
2023-02-16T17:18:21.598Z,10.02
2023-02-16T17:20:48.610Z,9.99
2023-02-16T17:23:16.606Z,9.92
2023-02-16T17:25:43.525Z,9.85
2023-02-16T17:28:10.727Z,9.81
2023-02-16T17:30:37.768Z,9.79
2023-02-16T17:33:07.063Z,9.78
2023-02-16T17:35:33.919Z,9.78
2023-02-16T17:38:07.332Z,9.74
2023-02-16T17:40:34.275Z,9.71
2023-02-16T17:43:01.477Z,9.68
2023-02-16T17:45:28.292Z,9.61
2023-02-16T17:47:55.383Z,9.61
2023-02-16T17:50:22.265Z,9.56
2023-02-16T17:52:49.363Z,9.53
2023-02-16T17:55:16.261Z,9.50
2023-02-16T17:57:43.366Z,9.45
2023-02-16T18:00:14.263Z,9.45
2023-02-16T18:02:41.375Z,9.44
2023-02-16T18:05:08.294Z,9.43
2023-02-16T18:07:35.582Z,9.42
2023-02-16T18:10:02.532Z,9.40
2023-02-16T18:12:29.625Z,9.37
2023-02-16T18:14:56.746Z,9.35
2023-02-16T18:17:24.118Z,9.31
2023-02-16T18:19:50.909Z,9.26
2023-02-16T18:22:18.036Z,9.25
2023-02-16T18:24:45.155Z,9.21
2023-02-16T18:27:12.301Z,9.18
2023-02-16T18:29:39.088Z,9.17
2023-02-16T18:32:06.320Z,9.12
2023-02-16T18:34:35.049Z,9.12
2023-02-16T18:37:02.226Z,9.09
2023-02-16T18:39:29.326Z,9.05
2023-02-16T18:41:56.442Z,9.05
2023-02-16T18:44:23.216Z,9.02
2023-02-16T18:46:50.421Z,8.98
2023-02-16T18:49:17.184Z,8.97
2023-02-16T18:51:44.255Z,8.93
2023-02-16T18:54:11.043Z,8.93
2023-02-16T18:56:39.184Z,8.90
2023-02-16T18:59:06.248Z,8.87
2023-02-16T19:01:33.804Z,8.84
2023-02-16T19:04:01.386Z,8.83
2023-02-16T19:06:28.860Z,8.81
2023-02-16T19:08:56.418Z,8.80
2023-02-16T19:11:23.586Z,8.76
2023-02-16T19:13:50.442Z,8.72
2023-02-16T19:16:17.798Z,8.70
2023-02-16T19:18:44.705Z,8.69
2023-02-16T19:21:12.601Z,8.66
2023-02-16T19:23:39.504Z,8.65
2023-02-16T19:26:08.013Z,8.61
2023-02-16T19:28:35.265Z,8.59
2023-02-16T19:31:03.542Z,8.61
2023-02-16T19:33:30.643Z,8.53
2023-02-16T19:36:02.591Z,8.51
2023-02-16T19:38:29.943Z,8.49
2023-02-16T19:40:57.130Z,8.50
2023-02-16T19:43:24.561Z,8.46
2023-02-16T19:45:52.912Z,8.45
2023-02-16T19:48:19.699Z,8.44
2023-02-16T19:50:46.766Z,8.40
2023-02-16T19:53:13.554Z,8.37
2023-02-16T19:55:42.057Z,8.39
2023-02-16T19:58:08.837Z,8.39
2023-02-16T20:00:37.703Z,8.32
2023-02-16T20:03:04.734Z,8.31
2023-02-16T20:05:32.436Z,8.32
2023-02-16T20:08:02.181Z,8.28
2023-02-16T20:10:30.317Z,8.23
2023-02-16T20:12:57.077Z,8.25
2023-02-16T20:15:24.163Z,8.21
2023-02-16T20:17:51.043Z,8.18
2023-02-16T20:20:18.572Z,8.16
2023-02-16T20:22:45.380Z,8.13
2023-02-16T20:25:12.493Z,8.11
2023-02-16T20:27:39.323Z,8.10
2023-02-16T20:30:07.122Z,8.13
2023-02-16T20:32:33.970Z,8.09
2023-02-16T20:35:05.181Z,8.07
2023-02-16T20:37:31.997Z,8.06
2023-02-16T20:39:59.132Z,8.04
2023-02-16T20:42:26.089Z,8.06
2023-02-16T20:44:53.256Z,8.00
2023-02-16T20:47:20.111Z,8.02
2023-02-16T20:49:47.246Z,7.96
2023-02-16T20:52:14.522Z,7.98
2023-02-16T20:54:41.715Z,7.99
2023-02-16T20:57:21.290Z,7.95
2023-02-16T20:59:53.064Z,7.94
2023-02-16T21:02:19.868Z,7.91
2023-02-16T21:04:47.227Z,7.88
2023-02-16T21:07:14.055Z,7.89
2023-02-16T21:09:41.403Z,7.89
2023-02-16T21:12:08.253Z,7.83
2023-02-16T21:14:35.340Z,7.82
2023-02-16T21:17:02.163Z,7.82
2023-02-16T21:19:29.241Z,7.78
2023-02-16T21:21:56.025Z,7.76
2023-02-16T21:24:23.245Z,7.72
2023-02-16T21:26:50.014Z,7.75
2023-02-16T21:29:17.195Z,7.72
2023-02-16T21:31:44.201Z,7.71
2023-02-16T21:34:11.373Z,7.65
2023-02-16T21:36:38.924Z,7.66
2023-02-16T21:39:06.113Z,7.67
2023-02-16T21:41:32.890Z,7.66
2023-02-16T21:44:12.131Z,7.64
2023-02-16T21:46:46.582Z,7.60
2023-02-16T21:49:15.542Z,7.56
2023-02-16T21:51:42.956Z,7.56
2023-02-16T21:54:13.763Z,7.59
2023-02-16T21:56:42.749Z,7.55
2023-02-16T21:59:11.836Z,7.55
2023-02-16T22:01:51.021Z,7.56
2023-02-16T22:04:20.134Z,7.54
2023-02-16T22:06:47.669Z,7.54
2023-02-16T22:09:17.620Z,7.46
2023-02-16T22:11:44.899Z,7.49
2023-02-16T22:14:12.080Z,7.47
2023-02-16T22:16:39.224Z,7.49
2023-02-16T22:19:08.346Z,7.46
2023-02-16T22:21:36.872Z,7.45
2023-02-16T22:24:04.254Z,7.46
2023-02-16T22:26:32.300Z,7.42
2023-02-16T22:28:59.346Z,7.43
2023-02-16T22:31:27.001Z,7.41
2023-02-16T22:33:58.405Z,7.39
2023-02-16T22:36:25.372Z,7.42
2023-02-16T22:38:52.960Z,7.37
2023-02-16T22:41:19.908Z,7.37
2023-02-16T22:43:47.046Z,7.35
2023-02-16T22:46:15.995Z,7.34
2023-02-16T22:48:43.510Z,7.36
2023-02-16T22:51:12.175Z,7.32
2023-02-16T22:53:39.437Z,7.29
2023-02-16T22:56:07.625Z,7.31
2023-02-16T22:58:35.021Z,7.32
2023-02-16T23:01:01.810Z,7.27
2023-02-16T23:03:29.251Z,7.30
2023-02-16T23:05:56.028Z,7.28
2023-02-16T23:08:23.132Z,7.27
2023-02-16T23:11:02.047Z,7.29
2023-02-16T23:13:30.346Z,7.28
2023-02-16T23:15:57.337Z,7.27
2023-02-16T23:18:24.756Z,7.22
2023-02-16T23:20:51.584Z,7.22
2023-02-16T23:23:18.786Z,7.20
2023-02-16T23:25:46.541Z,7.20
2023-02-16T23:28:13.737Z,7.18
2023-02-16T23:30:44.721Z,7.15
2023-02-16T23:33:12.199Z,7.15
2023-02-16T23:35:39.652Z,7.16
2023-02-16T23:38:07.677Z,7.13
2023-02-16T23:40:34.515Z,7.13
2023-02-16T23:43:01.612Z,7.14
2023-02-16T23:45:28.430Z,7.12
2023-02-16T23:47:55.496Z,7.14
2023-02-16T23:50:22.360Z,7.13
2023-02-16T23:52:49.460Z,7.11
2023-02-16T23:55:16.233Z,7.09
2023-02-16T23:57:43.303Z,7.08
